sensor_id;sensor_type;location;lat;lon;timestamp;pressure;altitude;pressure_sealevel;temperature;humidity
41531;BME280;58990;46.284;13.126;2022-08-03T00:01:27;99485.09;;;21.90;62.20
41531;BME280;58990;46.284;13.126;2022-08-03T00:03:52;99476.03;;;21.91;61.52
41531;BME280;58990;46.284;13.126;2022-08-03T00:06:18;99479.31;;;21.98;61.21
41531;BME280;58990;46.284;13.126;2022-08-03T00:08:43;99472.66;;;22.01;61.08
41531;BME280;58990;46.284;13.126;2022-08-03T00:11:09;99484.97;;;22.02;60.94
41531;BME280;58990;46.284;13.126;2022-08-03T00:13:34;99485.72;;;21.97;60.89
41531;BME280;58990;46.284;13.126;2022-08-03T00:16:00;99481.94;;;21.93;61.25
41531;BME280;58990;46.284;13.126;2022-08-03T00:18:26;99483.53;;;21.94;61.44
41531;BME280;58990;46.284;13.126;2022-08-03T00:20:51;99484.28;;;21.90;61.41
41531;BME280;58990;46.284;13.126;2022-08-03T00:23:17;99488.00;;;21.89;61.15
41531;BME280;58990;46.284;13.126;2022-08-03T00:25:42;99469.88;;;21.91;61.04
41531;BME280;58990;46.284;13.126;2022-08-03T00:28:08;99465.09;;;21.93;60.87
41531;BME280;58990;46.284;13.126;2022-08-03T00:30:34;99480.81;;;21.89;61.17
41531;BME280;58990;46.284;13.126;2022-08-03T00:33:00;99477.84;;;21.86;61.30
41531;BME280;58990;46.284;13.126;2022-08-03T00:35:26;99464.06;;;21.72;61.67
41531;BME280;58990;46.284;13.126;2022-08-03T00:37:52;99463.16;;;21.66;62.14
41531;BME280;58990;46.284;13.126;2022-08-03T00:40:18;99461.97;;;21.57;62.67
41531;BME280;58990;46.284;13.126;2022-08-03T00:42:51;99469.44;;;21.55;62.60
41531;BME280;58990;46.284;13.126;2022-08-03T00:45:18;99459.16;;;21.46;63.01
41531;BME280;58990;46.284;13.126;2022-08-03T00:47:44;99454.34;;;21.43;62.98
41531;BME280;58990;46.284;13.126;2022-08-03T00:50:11;99475.19;;;21.46;62.79
41531;BME280;58990;46.284;13.126;2022-08-03T00:52:37;99470.56;;;21.42;63.19
41531;BME280;58990;46.284;13.126;2022-08-03T00:55:03;99467.91;;;21.42;63.04
41531;BME280;58990;46.284;13.126;2022-08-03T00:57:29;99468.16;;;21.40;63.06
41531;BME280;58990;46.284;13.126;2022-08-03T00:59:56;99461.22;;;21.39;63.29
41531;BME280;58990;46.284;13.126;2022-08-03T01:02:22;99461.69;;;21.36;63.14
41531;BME280;58990;46.284;13.126;2022-08-03T01:04:47;99476.06;;;21.30;63.49
41531;BME280;58990;46.284;13.126;2022-08-03T01:15:38;99460.97;;;21.41;62.42
41531;BME280;58990;46.284;13.126;2022-08-03T01:18:16;99448.94;;;21.38;62.58
41531;BME280;58990;46.284;13.126;2022-08-03T01:20:45;99457.56;;;21.45;61.86
41531;BME280;58990;46.284;13.126;2022-08-03T01:26:33;99460.72;;;21.42;62.05
41531;BME280;58990;46.284;13.126;2022-08-03T01:31:58;99448.00;;;21.49;61.60
41531;BME280;58990;46.284;13.126;2022-08-03T01:34:28;99459.72;;;21.48;61.61
41531;BME280;58990;46.284;13.126;2022-08-03T01:36:56;99454.94;;;21.50;61.25
41531;BME280;58990;46.284;13.126;2022-08-03T01:39:25;99459.50;;;21.50;61.23
41531;BME280;58990;46.284;13.126;2022-08-03T01:41:57;99453.69;;;21.53;60.96
41531;BME280;58990;46.284;13.126;2022-08-03T01:44:25;99455.50;;;21.52;60.78
41531;BME280;58990;46.284;13.126;2022-08-03T01:46:54;99452.22;;;21.45;61.29
41531;BME280;58990;46.284;13.126;2022-08-03T01:49:21;99452.06;;;21.35;62.46
41531;BME280;58990;46.284;13.126;2022-08-03T01:51:47;99450.16;;;21.30;61.92
41531;BME280;58990;46.284;13.126;2022-08-03T01:54:14;99456.00;;;21.27;61.86
41531;BME280;58990;46.284;13.126;2022-08-03T01:56:41;99457.38;;;21.30;61.30
41531;BME280;58990;46.284;13.126;2022-08-03T01:59:09;99451.53;;;21.33;61.75
41531;BME280;58990;46.284;13.126;2022-08-03T02:01:36;99443.88;;;21.20;61.81
41531;BME280;58990;46.284;13.126;2022-08-03T02:04:04;99441.69;;;21.16;61.85
41531;BME280;58990;46.284;13.126;2022-08-03T02:06:32;99447.03;;;21.16;62.10
41531;BME280;58990;46.284;13.126;2022-08-03T02:08:59;99457.97;;;21.15;61.78
41531;BME280;58990;46.284;13.126;2022-08-03T02:11:27;99452.84;;;21.13;61.99
41531;BME280;58990;46.284;13.126;2022-08-03T02:13:56;99455.03;;;21.16;61.67
41531;BME280;58990;46.284;13.126;2022-08-03T02:16:22;99455.84;;;21.17;62.08
41531;BME280;58990;46.284;13.126;2022-08-03T02:18:49;99460.69;;;21.20;62.03
41531;BME280;58990;46.284;13.126;2022-08-03T02:21:16;99451.00;;;21.14;61.83
41531;BME280;58990;46.284;13.126;2022-08-03T02:23:42;99455.22;;;21.10;61.92
41531;BME280;58990;46.284;13.126;2022-08-03T02:26:11;99457.63;;;21.11;61.88
41531;BME280;58990;46.284;13.126;2022-08-03T02:28:40;99453.84;;;21.07;62.15
41531;BME280;58990;46.284;13.126;2022-08-03T02:31:12;99443.59;;;20.99;62.82
41531;BME280;58990;46.284;13.126;2022-08-03T02:33:48;99446.19;;;20.94;62.98
41531;BME280;58990;46.284;13.126;2022-08-03T02:36:16;99455.72;;;20.90;62.78
41531;BME280;58990;46.284;13.126;2022-08-03T02:38:48;99443.94;;;20.86;62.97
41531;BME280;58990;46.284;13.126;2022-08-03T02:41:22;99444.97;;;20.84;62.65
41531;BME280;58990;46.284;13.126;2022-08-03T02:43:51;99453.56;;;20.87;62.88
41531;BME280;58990;46.284;13.126;2022-08-03T02:46:18;99449.34;;;20.91;62.42
41531;BME280;58990;46.284;13.126;2022-08-03T02:48:45;99451.75;;;20.92;62.53
41531;BME280;58990;46.284;13.126;2022-08-03T02:51:12;99456.84;;;20.94;62.30
41531;BME280;58990;46.284;13.126;2022-08-03T02:53:39;99447.22;;;20.93;62.28
41531;BME280;58990;46.284;13.126;2022-08-03T02:56:06;99435.69;;;20.87;62.77
41531;BME280;58990;46.284;13.126;2022-08-03T02:58:33;99450.88;;;20.87;62.38
41531;BME280;58990;46.284;13.126;2022-08-03T03:01:00;99446.34;;;20.87;62.25
41531;BME280;58990;46.284;13.126;2022-08-03T03:03:27;99438.09;;;20.89;62.35
41531;BME280;58990;46.284;13.126;2022-08-03T03:05:54;99446.69;;;20.91;61.99
41531;BME280;58990;46.284;13.126;2022-08-03T03:08:21;99435.50;;;20.94;62.05
41531;BME280;58990;46.284;13.126;2022-08-03T03:10:47;99449.41;;;20.96;61.91
41531;BME280;58990;46.284;13.126;2022-08-03T03:13:14;99443.59;;;20.99;61.24
41531;BME280;58990;46.284;13.126;2022-08-03T03:15:43;99434.50;;;21.00;61.32
41531;BME280;58990;46.284;13.126;2022-08-03T03:18:10;99437.75;;;21.02;61.29
41531;BME280;58990;46.284;13.126;2022-08-03T03:20:37;99442.59;;;21.05;60.89
41531;BME280;58990;46.284;13.126;2022-08-03T03:23:05;99440.94;;;20.99;61.53
41531;BME280;58990;46.284;13.126;2022-08-03T03:25:31;99443.69;;;20.87;61.89
41531;BME280;58990;46.284;13.126;2022-08-03T03:27:59;99445.94;;;20.78;62.46
41531;BME280;58990;46.284;13.126;2022-08-03T03:30:25;99437.63;;;20.75;62.66
41531;BME280;58990;46.284;13.126;2022-08-03T03:32:52;99442.50;;;20.66;62.68
41531;BME280;58990;46.284;13.126;2022-08-03T03:35:17;99439.53;;;20.62;62.66
41531;BME280;58990;46.284;13.126;2022-08-03T03:37:42;99441.97;;;20.64;62.57
41531;BME280;58990;46.284;13.126;2022-08-03T03:40:09;99449.13;;;20.63;62.47
41531;BME280;58990;46.284;13.126;2022-08-03T03:42:34;99443.00;;;20.63;62.57
41531;BME280;58990;46.284;13.126;2022-08-03T03:45:05;99449.88;;;20.59;62.73
41531;BME280;58990;46.284;13.126;2022-08-03T03:47:31;99450.44;;;20.61;62.76
41531;BME280;58990;46.284;13.126;2022-08-03T03:49:58;99451.16;;;20.56;62.95
41531;BME280;58990;46.284;13.126;2022-08-03T03:52:23;99461.03;;;20.56;62.51
41531;BME280;58990;46.284;13.126;2022-08-03T03:54:49;99459.56;;;20.48;63.45
41531;BME280;58990;46.284;13.126;2022-08-03T03:57:14;99459.72;;;20.41;63.71
41531;BME280;58990;46.284;13.126;2022-08-03T03:59:41;99455.59;;;20.33;64.37
41531;BME280;58990;46.284;13.126;2022-08-03T04:02:08;99469.53;;;20.24;64.62
41531;BME280;58990;46.284;13.126;2022-08-03T04:04:34;99463.06;;;20.20;64.83
41531;BME280;58990;46.284;13.126;2022-08-03T04:07:20;99469.44;;;20.19;64.95
41531;BME280;58990;46.284;13.126;2022-08-03T04:10:21;99466.78;;;20.19;64.86
41531;BME280;58990;46.284;13.126;2022-08-03T04:13:08;99462.72;;;20.16;64.52
41531;BME280;58990;46.284;13.126;2022-08-03T04:15:36;99462.78;;;20.33;64.05
41531;BME280;58990;46.284;13.126;2022-08-03T04:18:05;99480.00;;;20.42;63.80
41531;BME280;58990;46.284;13.126;2022-08-03T04:20:35;99478.31;;;20.53;62.85
41531;BME280;58990;46.284;13.126;2022-08-03T04:23:02;99464.59;;;20.61;62.47
41531;BME280;58990;46.284;13.126;2022-08-03T04:25:30;99461.88;;;20.73;61.76
41531;BME280;58990;46.284;13.126;2022-08-03T04:27:58;99469.06;;;20.73;61.90
41531;BME280;58990;46.284;13.126;2022-08-03T04:30:27;99474.44;;;20.61;62.60
41531;BME280;58990;46.284;13.126;2022-08-03T04:32:55;99473.69;;;20.48;63.59
41531;BME280;58990;46.284;13.126;2022-08-03T04:35:23;99472.56;;;20.44;63.75
41531;BME280;58990;46.284;13.126;2022-08-03T04:37:51;99465.03;;;20.41;63.97
41531;BME280;58990;46.284;13.126;2022-08-03T04:40:21;99477.47;;;20.36;64.02
41531;BME280;58990;46.284;13.126;2022-08-03T04:42:48;99482.13;;;20.28;64.11
41531;BME280;58990;46.284;13.126;2022-08-03T04:45:15;99490.38;;;20.27;64.18
41531;BME280;58990;46.284;13.126;2022-08-03T04:47:41;99480.75;;;20.26;63.86
41531;BME280;58990;46.284;13.126;2022-08-03T04:50:08;99481.91;;;20.30;63.37
41531;BME280;58990;46.284;13.126;2022-08-03T04:52:34;99490.22;;;20.33;62.95
41531;BME280;58990;46.284;13.126;2022-08-03T04:54:59;99491.94;;;20.40;62.98
41531;BME280;58990;46.284;13.126;2022-08-03T04:57:25;99495.41;;;20.40;62.45
41531;BME280;58990;46.284;13.126;2022-08-03T04:59:51;99496.88;;;20.48;62.09
41531;BME280;58990;46.284;13.126;2022-08-03T05:02:19;99504.50;;;20.56;61.84
41531;BME280;58990;46.284;13.126;2022-08-03T05:04:45;99508.13;;;20.67;61.33
41531;BME280;58990;46.284;13.126;2022-08-03T05:07:15;99500.50;;;20.71;61.26
41531;BME280;58990;46.284;13.126;2022-08-03T05:09:41;99508.34;;;20.77;61.20
41531;BME280;58990;46.284;13.126;2022-08-03T05:12:07;99500.19;;;20.84;61.29
41531;BME280;58990;46.284;13.126;2022-08-03T05:14:33;99497.81;;;20.88;60.95
41531;BME280;58990;46.284;13.126;2022-08-03T05:17:01;99500.19;;;20.84;60.58
41531;BME280;58990;46.284;13.126;2022-08-03T05:19:26;99502.59;;;20.86;60.68
41531;BME280;58990;46.284;13.126;2022-08-03T05:21:52;99498.72;;;20.76;61.15
41531;BME280;58990;46.284;13.126;2022-08-03T05:24:18;99499.75;;;20.75;61.05
41531;BME280;58990;46.284;13.126;2022-08-03T05:26:43;99500.50;;;20.71;61.53
41531;BME280;58990;46.284;13.126;2022-08-03T05:29:09;99496.56;;;20.73;61.39
41531;BME280;58990;46.284;13.126;2022-08-03T05:31:34;99497.84;;;22.60;55.98
41531;BME280;58990;46.284;13.126;2022-08-03T05:34:00;99493.34;;;26.59;45.21
41531;BME280;58990;46.284;13.126;2022-08-03T05:36:25;99502.91;;;29.39;38.26
41531;BME280;58990;46.284;13.126;2022-08-03T05:38:51;99499.03;;;30.09;36.22
41531;BME280;58990;46.284;13.126;2022-08-03T05:41:16;99496.88;;;29.83;36.55
41531;BME280;58990;46.284;13.126;2022-08-03T05:43:42;99498.88;;;31.28;34.09
41531;BME280;58990;46.284;13.126;2022-08-03T05:46:08;99509.22;;;31.66;32.90
41531;BME280;58990;46.284;13.126;2022-08-03T05:48:33;99505.91;;;31.37;33.45
41531;BME280;58990;46.284;13.126;2022-08-03T05:50:59;99494.22;;;31.60;32.84
41531;BME280;58990;46.284;13.126;2022-08-03T05:53:24;99501.38;;;30.25;35.17
41531;BME280;58990;46.284;13.126;2022-08-03T05:55:50;99501.13;;;28.35;38.61
41531;BME280;58990;46.284;13.126;2022-08-03T05:58:16;99492.63;;;26.08;44.09
41531;BME280;58990;46.284;13.126;2022-08-03T06:00:41;99494.19;;;25.49;46.08
41531;BME280;58990;46.284;13.126;2022-08-03T06:03:07;99491.56;;;25.18;47.49
41531;BME280;58990;46.284;13.126;2022-08-03T06:05:32;99488.59;;;25.19;47.74
41531;BME280;58990;46.284;13.126;2022-08-03T06:08:01;99491.03;;;25.11;47.22
41531;BME280;58990;46.284;13.126;2022-08-03T06:10:27;99493.16;;;25.19;47.56
41531;BME280;58990;46.284;13.126;2022-08-03T06:12:52;99495.34;;;25.01;47.54
41531;BME280;58990;46.284;13.126;2022-08-03T06:15:18;99487.03;;;25.03;47.76
41531;BME280;58990;46.284;13.126;2022-08-03T06:17:45;99497.75;;;25.13;47.63
41531;BME280;58990;46.284;13.126;2022-08-03T06:20:11;99495.31;;;25.17;47.58
41531;BME280;58990;46.284;13.126;2022-08-03T06:22:37;99497.19;;;25.37;47.26
41531;BME280;58990;46.284;13.126;2022-08-03T06:25:03;99489.06;;;25.58;47.18
41531;BME280;58990;46.284;13.126;2022-08-03T06:27:28;99494.94;;;25.70;47.18
41531;BME280;58990;46.284;13.126;2022-08-03T06:29:54;99490.38;;;25.60;46.95
41531;BME280;58990;46.284;13.126;2022-08-03T06:32:19;99485.22;;;25.74;46.52
41531;BME280;58990;46.284;13.126;2022-08-03T06:34:47;99492.16;;;25.85;46.54
41531;BME280;58990;46.284;13.126;2022-08-03T06:37:13;99492.13;;;25.91;46.71
41531;BME280;58990;46.284;13.126;2022-08-03T06:39:38;99503.34;;;26.13;46.54
41531;BME280;58990;46.284;13.126;2022-08-03T06:42:04;99499.50;;;26.25;44.94
41531;BME280;58990;46.284;13.126;2022-08-03T06:44:29;99499.69;;;26.39;45.55
41531;BME280;58990;46.284;13.126;2022-08-03T06:46:55;99499.00;;;26.17;44.67
41531;BME280;58990;46.284;13.126;2022-08-03T06:49:20;99490.91;;;26.23;45.08
41531;BME280;58990;46.284;13.126;2022-08-03T06:51:46;99500.50;;;26.34;44.72
41531;BME280;58990;46.284;13.126;2022-08-03T06:54:12;99493.00;;;26.31;44.10
41531;BME280;58990;46.284;13.126;2022-08-03T06:56:37;99497.47;;;26.46;44.82
41531;BME280;58990;46.284;13.126;2022-08-03T06:59:02;99496.44;;;26.76;43.83
41531;BME280;58990;46.284;13.126;2022-08-03T07:01:28;99501.88;;;27.30;43.21
41531;BME280;58990;46.284;13.126;2022-08-03T07:03:53;99500.81;;;27.55;42.75
41531;BME280;58990;46.284;13.126;2022-08-03T07:06:20;99487.44;;;27.69;41.35
41531;BME280;58990;46.284;13.126;2022-08-03T07:08:46;99502.19;;;27.96;40.63
41531;BME280;58990;46.284;13.126;2022-08-03T07:11:11;99493.72;;;27.83;40.07
41531;BME280;58990;46.284;13.126;2022-08-03T07:13:37;99499.38;;;28.06;40.61
41531;BME280;58990;46.284;13.126;2022-08-03T07:16:02;99494.06;;;28.01;40.33
41531;BME280;58990;46.284;13.126;2022-08-03T07:18:28;99492.81;;;28.12;40.72
41531;BME280;58990;46.284;13.126;2022-08-03T07:20:53;99503.22;;;28.38;39.17
41531;BME280;58990;46.284;13.126;2022-08-03T07:23:19;99500.16;;;28.64;39.25
41531;BME280;58990;46.284;13.126;2022-08-03T07:25:44;99507.63;;;28.86;38.34
41531;BME280;58990;46.284;13.126;2022-08-03T07:28:10;99508.03;;;29.07;38.32
41531;BME280;58990;46.284;13.126;2022-08-03T07:30:35;99493.91;;;29.43;37.46
41531;BME280;58990;46.284;13.126;2022-08-03T07:33:01;99501.50;;;29.55;37.58
41531;BME280;58990;46.284;13.126;2022-08-03T07:35:26;99505.50;;;29.58;37.58
41531;BME280;58990;46.284;13.126;2022-08-03T07:37:52;99507.78;;;29.78;37.17
41531;BME280;58990;46.284;13.126;2022-08-03T07:40:18;99500.50;;;29.93;36.20
41531;BME280;58990;46.284;13.126;2022-08-03T07:42:44;99504.59;;;30.27;35.66
41531;BME280;58990;46.284;13.126;2022-08-03T07:45:09;99500.69;;;30.33;36.00
41531;BME280;58990;46.284;13.126;2022-08-03T07:47:35;99506.09;;;30.78;34.75
41531;BME280;58990;46.284;13.126;2022-08-03T07:50:00;99503.94;;;31.20;34.09
41531;BME280;58990;46.284;13.126;2022-08-03T07:52:26;99505.31;;;31.49;33.50
41531;BME280;58990;46.284;13.126;2022-08-03T07:55:11;99509.34;;;31.61;32.53
41531;BME280;58990;46.284;13.126;2022-08-03T07:57:37;99505.31;;;31.09;33.81
41531;BME280;58990;46.284;13.126;2022-08-03T08:00:05;99501.59;;;31.36;33.21
41531;BME280;58990;46.284;13.126;2022-08-03T08:02:31;99504.44;;;31.63;33.70
41531;BME280;58990;46.284;13.126;2022-08-03T08:04:56;99497.00;;;31.37;33.85
41531;BME280;58990;46.284;13.126;2022-08-03T08:07:22;99504.59;;;31.66;33.29
41531;BME280;58990;46.284;13.126;2022-08-03T08:09:47;99505.09;;;31.77;32.94
41531;BME280;58990;46.284;13.126;2022-08-03T08:12:13;99496.81;;;32.00;32.51
41531;BME280;58990;46.284;13.126;2022-08-03T08:14:38;99497.16;;;32.07;32.49
41531;BME280;58990;46.284;13.126;2022-08-03T08:17:05;99499.69;;;32.12;32.61
41531;BME280;58990;46.284;13.126;2022-08-03T08:19:31;99493.75;;;32.54;31.91
41531;BME280;58990;46.284;13.126;2022-08-03T08:21:56;99499.81;;;32.86;31.96
41531;BME280;58990;46.284;13.126;2022-08-03T08:24:22;99496.75;;;32.87;31.43
41531;BME280;58990;46.284;13.126;2022-08-03T08:26:47;99498.72;;;33.17;31.72
41531;BME280;58990;46.284;13.126;2022-08-03T08:29:13;99496.06;;;33.47;30.06
41531;BME280;58990;46.284;13.126;2022-08-03T08:31:38;99495.94;;;33.64;30.14
41531;BME280;58990;46.284;13.126;2022-08-03T08:34:04;99493.63;;;33.75;29.29
41531;BME280;58990;46.284;13.126;2022-08-03T08:36:34;99490.16;;;33.96;28.31
41531;BME280;58990;46.284;13.126;2022-08-03T08:39:00;99483.78;;;33.92;28.71
41531;BME280;58990;46.284;13.126;2022-08-03T08:41:26;99490.34;;;34.12;28.44
41531;BME280;58990;46.284;13.126;2022-08-03T08:43:53;99485.38;;;33.93;27.14
41531;BME280;58990;46.284;13.126;2022-08-03T08:46:20;99490.44;;;34.03;26.76
41531;BME280;58990;46.284;13.126;2022-08-03T08:48:47;99486.97;;;34.36;26.98
41531;BME280;58990;46.284;13.126;2022-08-03T08:51:13;99489.09;;;34.09;26.62
41531;BME280;58990;46.284;13.126;2022-08-03T08:53:43;99491.31;;;34.49;26.27
41531;BME280;58990;46.284;13.126;2022-08-03T08:56:12;99487.88;;;34.40;26.66
41531;BME280;58990;46.284;13.126;2022-08-03T08:58:43;99482.97;;;34.79;24.56
41531;BME280;58990;46.284;13.126;2022-08-03T09:01:11;99485.91;;;34.74;25.33
41531;BME280;58990;46.284;13.126;2022-08-03T09:03:36;99490.00;;;34.56;25.79
41531;BME280;58990;46.284;13.126;2022-08-03T09:06:02;99486.19;;;34.35;26.59
41531;BME280;58990;46.284;13.126;2022-08-03T09:08:29;99485.28;;;34.77;25.87
41531;BME280;58990;46.284;13.126;2022-08-03T09:10:55;99486.44;;;35.13;25.34
41531;BME280;58990;46.284;13.126;2022-08-03T09:13:21;99478.91;;;34.73;25.35
41531;BME280;58990;46.284;13.126;2022-08-03T09:15:47;99484.53;;;35.01;24.40
41531;BME280;58990;46.284;13.126;2022-08-03T09:18:27;99476.38;;;34.68;25.18
41531;BME280;58990;46.284;13.126;2022-08-03T09:21:21;99476.38;;;34.68;25.42
41531;BME280;58990;46.284;13.126;2022-08-03T09:23:49;99480.72;;;34.81;24.34
41531;BME280;58990;46.284;13.126;2022-08-03T09:29:04;99482.88;;;34.76;25.15
41531;BME280;58990;46.284;13.126;2022-08-03T09:34:09;99485.69;;;34.67;25.39
41531;BME280;58990;46.284;13.126;2022-08-03T09:39:21;99476.19;;;34.73;25.06
41531;BME280;58990;46.284;13.126;2022-08-03T09:42:11;99473.06;;;35.20;25.63
41531;BME280;58990;46.284;13.126;2022-08-03T09:44:46;99469.19;;;35.59;24.54
41531;BME280;58990;46.284;13.126;2022-08-03T09:47:14;99472.09;;;35.78;23.85
41531;BME280;58990;46.284;13.126;2022-08-03T09:49:42;99474.38;;;35.89;23.52
41531;BME280;58990;46.284;13.126;2022-08-03T09:52:20;99460.41;;;36.06;22.64
41531;BME280;58990;46.284;13.126;2022-08-03T09:54:51;99465.28;;;36.41;22.24
41531;BME280;58990;46.284;13.126;2022-08-03T09:57:24;99458.97;;;35.56;22.69
41531;BME280;58990;46.284;13.126;2022-08-03T09:59:51;99457.09;;;35.72;23.49
41531;BME280;58990;46.284;13.126;2022-08-03T10:02:21;99456.97;;;36.22;22.41
41531;BME280;58990;46.284;13.126;2022-08-03T10:04:48;99454.56;;;36.48;22.43
41531;BME280;58990;46.284;13.126;2022-08-03T10:07:15;99443.09;;;36.59;22.21
41531;BME280;58990;46.284;13.126;2022-08-03T10:09:56;99448.91;;;36.41;22.45
41531;BME280;58990;46.284;13.126;2022-08-03T10:12:23;99444.25;;;35.85;22.97
41531;BME280;58990;46.284;13.126;2022-08-03T10:14:49;99443.25;;;36.34;22.58
41531;BME280;58990;46.284;13.126;2022-08-03T10:17:14;99445.47;;;35.87;23.14
41531;BME280;58990;46.284;13.126;2022-08-03T10:19:40;99433.50;;;34.90;24.46
41531;BME280;58990;46.284;13.126;2022-08-03T10:22:11;99433.50;;;35.27;23.76
41531;BME280;58990;46.284;13.126;2022-08-03T10:24:39;99434.56;;;35.75;22.65
41531;BME280;58990;46.284;13.126;2022-08-03T10:27:10;99423.97;;;35.33;22.98
41531;BME280;58990;46.284;13.126;2022-08-03T10:29:38;99422.75;;;35.71;22.98
41531;BME280;58990;46.284;13.126;2022-08-03T10:32:12;99423.47;;;36.25;22.35
41531;BME280;58990;46.284;13.126;2022-08-03T10:34:41;99421.00;;;35.38;23.17
41531;BME280;58990;46.284;13.126;2022-08-03T10:37:10;99409.88;;;36.12;23.01
41531;BME280;58990;46.284;13.126;2022-08-03T10:39:37;99415.41;;;36.44;22.04
41531;BME280;58990;46.284;13.126;2022-08-03T10:42:19;99411.31;;;36.82;21.46
41531;BME280;58990;46.284;13.126;2022-08-03T10:44:45;99402.22;;;36.18;22.26
41531;BME280;58990;46.284;13.126;2022-08-03T10:47:13;99403.59;;;35.96;22.61
41531;BME280;58990;46.284;13.126;2022-08-03T10:49:39;99405.28;;;36.45;22.42
41531;BME280;58990;46.284;13.126;2022-08-03T10:52:05;99407.41;;;36.83;22.00
41531;BME280;58990;46.284;13.126;2022-08-03T10:57:47;99397.69;;;36.54;22.05
41531;BME280;58990;46.284;13.126;2022-08-03T11:00:21;99395.66;;;36.67;21.07
41531;BME280;58990;46.284;13.126;2022-08-03T11:05:42;99398.13;;;36.40;21.57
41531;BME280;58990;46.284;13.126;2022-08-03T11:11:02;99390.59;;;36.21;20.70
41531;BME280;58990;46.284;13.126;2022-08-03T11:19:43;99392.06;;;35.62;22.13
41531;BME280;58990;46.284;13.126;2022-08-03T11:22:09;99395.44;;;35.71;22.65
41531;BME280;58990;46.284;13.126;2022-08-03T11:27:20;99385.44;;;36.96;20.16
41531;BME280;58990;46.284;13.126;2022-08-03T11:30:07;99382.59;;;36.76;19.73
41531;BME280;58990;46.284;13.126;2022-08-03T11:40:50;99366.66;;;36.46;22.11
41531;BME280;58990;46.284;13.126;2022-08-03T11:46:09;99363.31;;;37.20;21.66
41531;BME280;58990;46.284;13.126;2022-08-03T11:51:26;99352.78;;;36.07;22.59
41531;BME280;58990;46.284;13.126;2022-08-03T11:56:45;99356.88;;;36.45;23.00
41531;BME280;58990;46.284;13.126;2022-08-03T11:59:11;99353.16;;;36.53;21.31
41531;BME280;58990;46.284;13.126;2022-08-03T12:01:37;99347.88;;;36.77;21.00
41531;BME280;58990;46.284;13.126;2022-08-03T12:04:03;99351.16;;;36.34;22.03
41531;BME280;58990;46.284;13.126;2022-08-03T12:06:29;99348.31;;;36.63;20.65
41531;BME280;58990;46.284;13.126;2022-08-03T12:08:55;99339.59;;;37.09;20.35
41531;BME280;58990;46.284;13.126;2022-08-03T12:11:20;99341.13;;;37.42;20.45
41531;BME280;58990;46.284;13.126;2022-08-03T12:13:48;99334.44;;;37.23;19.36
41531;BME280;58990;46.284;13.126;2022-08-03T12:16:23;99327.94;;;37.47;19.32
41531;BME280;58990;46.284;13.126;2022-08-03T12:19:00;99333.31;;;36.73;18.81
41531;BME280;58990;46.284;13.126;2022-08-03T12:21:27;99329.00;;;36.24;19.09
41531;BME280;58990;46.284;13.126;2022-08-03T12:24:01;99334.94;;;36.42;20.55
41531;BME280;58990;46.284;13.126;2022-08-03T12:26:28;99326.81;;;36.61;20.50
41531;BME280;58990;46.284;13.126;2022-08-03T12:28:54;99327.78;;;36.53;21.04
41531;BME280;58990;46.284;13.126;2022-08-03T12:31:19;99327.53;;;37.10;19.95
41531;BME280;58990;46.284;13.126;2022-08-03T12:36:34;99321.28;;;37.68;17.64
41531;BME280;58990;46.284;13.126;2022-08-03T12:39:03;99328.50;;;37.37;19.63
41531;BME280;58990;46.284;13.126;2022-08-03T12:41:35;99318.06;;;37.62;19.71
41531;BME280;58990;46.284;13.126;2022-08-03T12:44:05;99317.16;;;36.83;19.49
41531;BME280;58990;46.284;13.126;2022-08-03T12:46:33;99317.81;;;37.12;19.04
41531;BME280;58990;46.284;13.126;2022-08-03T12:54:21;99311.69;;;36.83;20.34
41531;BME280;58990;46.284;13.126;2022-08-03T12:57:08;99305.66;;;36.42;20.50
41531;BME280;58990;46.284;13.126;2022-08-03T12:59:36;99313.47;;;35.96;20.83
41531;BME280;58990;46.284;13.126;2022-08-03T13:02:03;99303.09;;;36.17;20.01
41531;BME280;58990;46.284;13.126;2022-08-03T13:04:31;99308.31;;;37.26;19.85
41531;BME280;58990;46.284;13.126;2022-08-03T13:09:42;99297.63;;;37.01;18.73
41531;BME280;58990;46.284;13.126;2022-08-03T13:12:11;99305.28;;;36.76;19.73
41531;BME280;58990;46.284;13.126;2022-08-03T13:14:37;99302.03;;;36.70;19.95
41531;BME280;58990;46.284;13.126;2022-08-03T13:17:04;99303.78;;;36.78;19.95
41531;BME280;58990;46.284;13.126;2022-08-03T13:19:32;99294.03;;;36.45;19.56
41531;BME280;58990;46.284;13.126;2022-08-03T13:21:58;99294.38;;;36.60;20.34
41531;BME280;58990;46.284;13.126;2022-08-03T13:24:24;99300.63;;;36.12;20.84
41531;BME280;58990;46.284;13.126;2022-08-03T13:26:49;99291.97;;;36.10;21.17
41531;BME280;58990;46.284;13.126;2022-08-03T13:29:16;99300.28;;;36.30;21.88
41531;BME280;58990;46.284;13.126;2022-08-03T13:31:42;99299.38;;;35.94;22.15
41531;BME280;58990;46.284;13.126;2022-08-03T13:34:07;99289.44;;;35.73;21.76
41531;BME280;58990;46.284;13.126;2022-08-03T13:36:33;99287.44;;;35.29;23.35
41531;BME280;58990;46.284;13.126;2022-08-03T13:38:59;99294.03;;;36.13;22.04
41531;BME280;58990;46.284;13.126;2022-08-03T13:41:24;99300.44;;;36.05;21.64
41531;BME280;58990;46.284;13.126;2022-08-03T13:43:50;99283.63;;;36.03;21.70
41531;BME280;58990;46.284;13.126;2022-08-03T13:46:15;99291.09;;;36.06;21.43
41531;BME280;58990;46.284;13.126;2022-08-03T13:48:41;99284.56;;;35.95;23.33
41531;BME280;58990;46.284;13.126;2022-08-03T13:51:07;99275.59;;;35.66;23.70
41531;BME280;58990;46.284;13.126;2022-08-03T13:53:32;99275.75;;;35.29;23.28
41531;BME280;58990;46.284;13.126;2022-08-03T13:55:58;99271.78;;;35.54;23.91
41531;BME280;58990;46.284;13.126;2022-08-03T13:58:23;99277.34;;;35.86;22.98
41531;BME280;58990;46.284;13.126;2022-08-03T14:00:49;99272.94;;;35.98;23.08